Huvudsida
METAR-TAF:

METAR-TAF

Flygplatser :

Friedrichshafens flygplats

Friedrichshafen, Tyskland

latitud: 47-40N, longitud: 009-31E, höjd: 416 m

Aktuellt väderrapport

Denna rapport gjordes för 26 minuter sedan, klockan 22:20 UTC
Vind 3 kt från nordost
Temperatur 11°C
Fuktighet 71%
Tryck 1030 hPa
Sikt 10 km eller mer

METAR: EDNY 272220Z AUTO 04003KT 9999 // NCD 11/06 Q1030

Tid: 00:46 (22:46 UTC)

Väderprognos

Denna rapport gjordes för 5 timmar och 46 minuter sedan, klockan 17:00 UTC
Prognos gäller från 27 kl. 18 UTC till 28 kl. 18 UTC
Vind 5 kt från nord/nordost
Sikt 10 km eller mer
Inga moln under 1 500 m eller inga cumulonimbus
Blir
från 28 kl. 02 UTC till 28 kl. 05 UTC
Vind 3 kt varierande vindriktning
Sannolikhet 30% :
Temporärt
från 28 kl. 09 UTC till 28 kl. 12 UTC
Vind 5 kt från sydväst
Blir
från 28 kl. 12 UTC till 28 kl. 14 UTC
Vind 8 kt från nordost

TAF: EDNY 271700Z 2718/2818 03005KT CAVOK BECMG 2802/2805 VRB03KT PROB30 TEMPO 2809/2812 23005KT BECMG 2812/2814 04008KT

Aktuella väderrapporter och prognoser från 4000 flygplatser (METAR- och TAF-rapporter).

De tillgängliga stationerna syns som gula och röda prickar på kartan.

För musen över prickarna för att se namnen på stationerna.

Klicka sedan för att få väderrapporter och prognoser.

För att ändra kartan: Klicka på de gröna knapparna med ett svart kors på för att zooma in; den gröna knappen med ett streck på för att zooma ut; eller på de gröna pilarna för angränsande kartor.


METAR-TAF: